Terminal Aerodrome Forecast
Issued by NWS Duluth, MN

Home | Current Version | Previous Version | Text Only | Print | Product List | Glossary On
Versions: 1 2 3 4 5 6 7 8 9 10 11 12 13 14 15 16 17 18 19 20 21 22
874
FTUS43 KDLH 240418 AAB
TAFDLH
TAF AMD
KDLH 240418Z 2404/2424 09014KT P6SM SCT015 OVC090
     FM240800 09015G24KT 5SM BR BKN012
     FM241400 11017G25KT P6SM SCT015 BKN040
     FM242000 11015G23KT P6SM VCSH BKN050=

USA.gov is the U.S. government's official web portal to all federal, state and local government web resources and services.